Time;durP1;ratioP1;P1;durP2;ratioP2;P2;SDS_P1;SDS_P2;PMS_P1;PMS_P2;Temp;Humidity;BMP_temperature;BMP_pressure;BME280_temperature;BME280_humidity;BME280_pressure;Samples;Min_cycle;Max_cycle;Signal;HPM_P1;HPM_P2
2022/03/11 00:01:33;;;;;;;7.12;2.55;;;;;;;-6.74;43.48;100868.85;1725922;81;21185;-75
2022/03/11 00:04:01;;;;;;;6.45;2.62;;;;;;;-6.73;43.49;100865.19;1669436;83;21549;-74
2022/03/11 00:06:28;;;;;;;5.75;2.40;;;;;;;-6.68;43.80;100861.97;1689532;81;20971;-74
2022/03/11 00:08:57;;;;;;;5.95;2.47;;;;;;;-6.63;43.74;100866.32;1699244;81;20947;-75
2022/03/11 00:11:24;;;;;;;7.50;2.90;;;;;;;-6.62;43.33;100871.19;1690511;82;20997;-75
2022/03/11 00:13:53;;;;;;;6.03;3.05;;;;;;;-6.65;43.22;100868.33;1706640;82;21006;-74
2022/03/11 00:16:21;;;;;;;9.10;3.08;;;;;;;-6.65;43.20;100864.83;1695441;83;22460;-74
2022/03/11 00:18:48;;;;;;;3.75;2.22;;;;;;;-6.68;43.37;100870.52;1708569;82;21519;-75
2022/03/11 00:21:16;;;;;;;2.08;1.67;;;;;;;-6.69;43.19;100872.38;1721415;81;20999;-74
2022/03/11 00:23:44;;;;;;;5.97;2.00;;;;;;;-6.75;43.55;100868.53;1727748;81;21064;-75
2022/03/11 00:26:11;;;;;;;7.53;2.83;;;;;;;-6.78;43.29;100863.52;1720191;81;21584;-74
2022/03/11 00:28:38;;;;;;;5.15;2.65;;;;;;;-6.83;43.51;100867.22;1728346;82;21496;-76
2022/03/11 00:31:08;;;;;;;6.03;2.47;;;;;;;-6.89;43.50;100861.21;1739374;80;20982;-73
2022/03/11 00:33:36;;;;;;;4.62;2.67;;;;;;;-6.91;43.92;100860.05;1700337;82;21009;-74
2022/03/11 00:36:03;;;;;;;5.45;2.20;;;;;;;-6.88;44.02;100863.72;1719617;81;21537;-76
2022/03/11 00:38:30;;;;;;;8.55;2.25;;;;;;;-6.88;44.01;100857.52;1717076;81;21189;-74
2022/03/11 00:40:58;;;;;;;4.87;2.37;;;;;;;-6.92;43.58;100845.44;1723786;81;22253;-76
2022/03/11 00:43:26;;;;;;;6.75;2.00;;;;;;;-7.00;43.86;100848.50;1720245;81;20975;-76
2022/03/11 00:45:55;;;;;;;6.08;2.60;;;;;;;-7.02;43.92;100851.00;1714108;81;21056;-76
2022/03/11 00:48:23;;;;;;;6.58;2.52;;;;;;;-7.10;43.81;100839.31;1736153;81;20933;-74
2022/03/11 00:50:50;;;;;;;7.37;3.02;;;;;;;-7.08;44.15;100851.20;1723492;82;21098;-74
2022/03/11 00:53:17;;;;;;;8.03;2.72;;;;;;;-7.06;44.05;100845.14;1683849;83;21170;-75
2022/03/11 00:55:44;;;;;;;4.62;2.10;;;;;;;-7.05;43.96;100836.11;1691708;82;20919;-75
2022/03/11 00:58:11;;;;;;;7.53;2.65;;;;;;;-7.09;44.13;100842.80;1691604;82;20968;-75
2022/03/11 01:00:38;;;;;;;6.70;3.00;;;;;;;-7.06;44.38;100840.30;1689446;83;21659;-73
2022/03/11 01:03:04;;;;;;;4.37;2.22;;;;;;;-7.04;44.30;100840.95;1692815;83;21059;-73
2022/03/11 01:05:31;;;;;;;6.25;3.00;;;;;;;-7.08;44.22;100833.78;1695875;83;21610;-76
2022/03/11 01:08:02;;;;;;;5.12;2.33;;;;;;;-7.08;44.60;100828.42;1689589;83;21115;-74
2022/03/11 01:10:30;;;;;;;8.25;3.27;;;;;;;-7.03;44.22;100832.77;1703634;83;21111;-76
2022/03/11 01:12:58;;;;;;;7.42;2.22;;;;;;;-7.06;44.14;100826.91;1700326;82;21058;-76
2022/03/11 01:15:27;;;;;;;7.17;2.90;;;;;;;-7.05;44.48;100835.27;1735709;80;20941;-76
2022/03/11 01:17:54;;;;;;;7.28;2.47;;;;;;;-7.02;44.28;100825.54;1724257;81;21252;-74
2022/03/11 01:20:20;;;;;;;7.08;2.65;;;;;;;-7.03;44.08;100832.77;1733585;82;20921;-75
2022/03/11 01:22:48;;;;;;;4.03;1.92;;;;;;;-7.04;44.23;100834.25;1709941;81;21024;-75
2022/03/11 01:25:15;;;;;;;5.12;2.35;;;;;;;-7.06;44.50;100832.27;1684191;83;21194;-76
2022/03/11 01:27:44;;;;;;;6.62;2.77;;;;;;;-7.08;44.26;100832.44;1710322;81;20877;-76
2022/03/11 01:30:13;;;;;;;4.55;2.05;;;;;;;-7.16;44.36;100829.25;1727987;80;22100;-74
2022/03/11 01:32:43;;;;;;;4.30;2.33;;;;;;;-7.16;44.22;100824.38;1726979;81;21416;-75
2022/03/11 01:35:11;;;;;;;10.13;2.40;;;;;;;-7.19;44.30;100835.45;1715001;81;20993;-74
2022/03/11 01:37:39;;;;;;;6.05;2.45;;;;;;;-7.24;44.56;100834.63;1739020;81;21407;-75
2022/03/11 01:40:08;;;;;;;5.72;2.15;;;;;;;-7.25;44.43;100830.28;1727558;81;20885;-75
2022/03/11 01:42:36;;;;;;;4.53;2.80;;;;;;;-7.26;44.55;100836.14;1728157;81;21150;-75
2022/03/11 01:45:04;;;;;;;8.50;2.45;;;;;;;-7.26;44.85;100829.44;1719383;82;21071;-74
2022/03/11 01:47:32;;;;;;;9.60;1.92;;;;;;;-7.26;44.79;100834.80;1723440;81;21048;-74
2022/03/11 01:50:01;;;;;;;4.03;2.05;;;;;;;-7.29;44.95;100839.16;1706935;81;20993;-76
2022/03/11 01:52:29;;;;;;;5.47;2.52;;;;;;;-7.34;44.85;100833.47;1734777;82;21056;-74
2022/03/11 01:54:56;;;;;;;6.35;2.42;;;;;;;-7.42;44.46;100827.60;1727986;81;21061;-76
2022/03/11 01:57:24;;;;;;;6.53;3.00;;;;;;;-7.49;44.75;100818.59;1706723;81;21025;-75
2022/03/11 01:59:53;;;;;;;5.03;2.25;;;;;;;-7.47;45.09;100825.96;1729327;81;21032;-74
2022/03/11 02:02:22;;;;;;;12.85;2.37;;;;;;;-7.45;45.03;100829.28;1716611;81;21032;-75
2022/03/11 02:04:50;;;;;;;5.17;2.45;;;;;;;-7.51;44.99;100825.95;1734190;81;21123;-74
2022/03/11 02:07:17;;;;;;;5.97;2.80;;;;;;;-7.60;45.34;100829.97;1720777;81;21557;-75
2022/03/11 02:09:44;;;;;;;6.83;2.20;;;;;;;-7.60;45.71;100825.95;1705253;81;21037;-75
2022/03/11 02:12:12;;;;;;;6.37;2.45;;;;;;;-7.56;45.74;100826.46;1722773;81;21001;-74
2022/03/11 02:14:39;;;;;;;12.25;2.83;;;;;;;-7.50;45.77;100833.81;1715575;82;20957;-75
2022/03/11 02:17:09;;;;;;;6.28;2.58;;;;;;;-7.47;45.69;100831.32;1726110;81;20981;-74
2022/03/11 02:19:37;;;;;;;4.90;2.27;;;;;;;-7.48;45.67;100829.63;1737458;80;21231;-75
2022/03/11 02:22:04;;;;;;;3.47;2.02;;;;;;;-7.47;45.79;100830.80;1708006;81;21699;-75
2022/03/11 02:24:32;;;;;;;4.28;2.30;;;;;;;-7.47;45.76;100834.81;1713529;81;21197;-75
2022/03/11 02:27:00;;;;;;;3.15;1.92;;;;;;;-7.49;45.63;100830.64;1711360;81;21141;-74
2022/03/11 02:29:27;;;;;;;7.20;2.52;;;;;;;-7.53;45.88;100834.64;1743280;82;21060;-75
2022/03/11 02:31:55;;;;;;;4.83;2.60;;;;;;;-7.59;45.79;100832.16;1733388;81;21146;-74
2022/03/11 02:34:22;;;;;;;7.05;2.60;;;;;;;-7.66;45.92;100831.98;1717388;81;20997;-74
2022/03/11 02:36:49;;;;;;;11.12;2.92;;;;;;;-7.65;46.07;100843.02;1735683;81;21005;-72
2022/03/11 02:39:17;;;;;;;4.92;1.95;;;;;;;-7.66;46.00;100841.85;1726866;81;20956;-75
2022/03/11 02:41:47;;;;;;;6.15;2.10;;;;;;;-7.68;46.11;100839.34;1731943;80;20997;-75
2022/03/11 02:44:13;;;;;;;3.87;2.05;;;;;;;-7.70;46.03;100838.67;1710780;81;21195;-73
2022/03/11 02:46:40;;;;;;;8.00;2.37;;;;;;;-7.67;46.56;100831.64;1739166;81;21185;-74
2022/03/11 02:49:07;;;;;;;3.05;1.90;;;;;;;-7.60;46.35;100838.00;1723054;81;21122;-75
2022/03/11 02:51:34;;;;;;;4.80;1.90;;;;;;;-7.62;45.99;100845.36;1731714;81;21415;-73
2022/03/11 02:54:01;;;;;;;7.17;2.55;;;;;;;-7.71;45.98;100845.04;1719070;81;20937;-74
2022/03/11 02:56:28;;;;;;;6.42;3.08;;;;;;;-7.83;46.09;100844.00;1727126;80;21383;-75
2022/03/11 02:58:54;;;;;;;6.37;2.45;;;;;;;-7.87;46.18;100841.83;1714083;81;20920;-74
2022/03/11 03:01:21;;;;;;;4.15;2.60;;;;;;;-7.94;46.22;100845.17;1711911;81;21000;-76
2022/03/11 03:03:48;;;;;;;9.90;2.87;;;;;;;-7.96;46.48;100847.66;1712139;81;21168;-74
2022/03/11 03:06:17;;;;;;;4.20;1.98;;;;;;;-7.94;46.63;100845.67;1741877;81;20901;-75
2022/03/11 03:08:43;;;;;;;12.07;2.83;;;;;;;-7.93;46.77;100848.67;1726635;81;21006;-74
2022/03/11 03:11:12;;;;;;;5.65;2.20;;;;;;;-7.91;46.88;100845.33;1715762;81;21644;-74
2022/03/11 03:13:39;;;;;;;7.55;2.77;;;;;;;-7.88;46.93;100846.34;1733042;80;21568;-73
2022/03/11 03:16:08;;;;;;;8.15;3.33;;;;;;;-7.91;46.96;100841.31;1727785;80;20949;-75
2022/03/11 03:18:34;;;;;;;6.05;2.52;;;;;;;-7.95;47.04;100842.67;1664548;83;20923;-74
2022/03/11 03:21:01;;;;;;;6.53;3.40;;;;;;;-7.93;46.98;100841.98;1693595;83;21194;-74
2022/03/11 03:23:30;;;;;;;8.40;2.77;;;;;;;-7.98;46.95;100842.97;1689535;82;20901;-74
2022/03/11 03:25:57;;;;;;;9.55;2.85;;;;;;;-8.04;46.88;100833.78;1691635;83;20969;-75
2022/03/11 03:28:25;;;;;;;6.03;2.30;;;;;;;-8.10;47.23;100834.45;1689053;82;20945;-74
2022/03/11 03:30:52;;;;;;;6.72;2.42;;;;;;;-8.14;47.32;100837.10;1690868;83;21815;-75
2022/03/11 03:33:21;;;;;;;9.13;3.30;;;;;;;-8.13;47.49;100838.77;1689972;83;21254;-75
2022/03/11 03:35:47;;;;;;;7.80;3.37;;;;;;;-8.14;47.42;100830.41;1691432;82;21011;-75
2022/03/11 03:38:17;;;;;;;4.60;2.50;;;;;;;-8.14;47.60;100834.42;1705634;82;20867;-76
2022/03/11 03:40:44;;;;;;;5.70;2.83;;;;;;;-8.18;47.68;100836.59;1662554;83;21061;-76
2022/03/11 03:43:11;;;;;;;8.90;3.00;;;;;;;-8.18;47.96;100836.59;1695334;81;21004;-74
2022/03/11 03:45:40;;;;;;;7.22;3.05;;;;;;;-8.14;48.16;100837.95;1734915;81;21162;-74
2022/03/11 03:48:07;;;;;;;6.15;2.80;;;;;;;-8.09;47.89;100842.80;1719651;81;20929;-74
2022/03/11 03:50:34;;;;;;;8.65;1.95;;;;;;;-8.07;48.00;100832.25;1718172;81;21067;-74
2022/03/11 03:53:00;;;;;;;5.78;3.00;;;;;;;-8.09;47.62;100848.16;1719908;81;20950;-75
2022/03/11 03:55:27;;;;;;;8.68;2.72;;;;;;;-8.17;47.66;100836.91;1719895;81;21103;-74
2022/03/11 03:57:54;;;;;;;4.08;2.47;;;;;;;-8.17;48.12;100836.09;1724734;81;21609;-75
2022/03/11 04:00:22;;;;;;;7.35;2.98;;;;;;;-8.15;48.26;100834.92;1733100;81;21060;-75
2022/03/11 04:02:51;;;;;;;6.58;3.27;;;;;;;-8.16;48.26;100841.77;1739066;81;20902;-74
2022/03/11 04:05:19;;;;;;;6.08;2.45;;;;;;;-8.25;47.89;100840.91;1726443;81;20957;-74
2022/03/11 04:07:47;;;;;;;8.50;3.55;;;;;;;-8.33;48.12;100843.07;1717248;81;20945;-74
2022/03/11 04:10:14;;;;;;;7.62;2.80;;;;;;;-8.39;48.56;100843.73;1720596;81;21477;-74
2022/03/11 04:12:41;;;;;;;9.83;3.20;;;;;;;-8.36;48.73;100842.88;1732204;81;20946;-74
2022/03/11 04:15:09;;;;;;;6.70;3.00;;;;;;;-8.37;48.83;100843.89;1721824;81;20896;-76
2022/03/11 04:17:38;;;;;;;6.10;2.87;;;;;;;-8.37;48.76;100848.39;1722934;81;21901;-75
2022/03/11 04:20:08;;;;;;;3.60;2.02;;;;;;;-8.43;48.94;100849.38;1725638;81;21092;-73
2022/03/11 04:22:43;;;;;;;7.15;3.05;;;;;;;-8.41;49.04;100851.07;1721475;81;21146;-76
2022/03/11 04:25:11;;;;;;;5.60;2.52;;;;;;;-8.41;49.15;100850.58;1733341;81;21336;-74
2022/03/11 04:27:38;;;;;;;3.92;1.92;;;;;;;-8.38;49.25;100850.74;1732014;82;21443;-77
2022/03/11 04:30:06;;;;;;;6.83;2.70;;;;;;;-8.37;49.52;100849.73;1741117;81;20985;-74
2022/03/11 04:32:33;;;;;;;8.30;3.15;;;;;;;-8.34;49.31;100846.76;1723545;81;21546;-76
2022/03/11 04:35:01;;;;;;;7.67;3.27;;;;;;;-8.39;49.33;100849.89;1738076;81;21541;-76
2022/03/11 04:37:28;;;;;;;7.37;3.42;;;;;;;-8.38;49.38;100850.74;1736814;81;20960;-75
2022/03/11 04:39:57;;;;;;;5.53;2.22;;;;;;;-8.41;49.44;100857.76;1682105;83;21021;-74
2022/03/11 04:42:25;;;;;;;5.42;2.77;;;;;;;-8.45;49.69;100857.23;1686971;83;21007;-75
2022/03/11 04:44:54;;;;;;;5.45;2.20;;;;;;;-8.45;49.74;100859.42;1694584;83;20964;-75
2022/03/11 04:47:21;;;;;;;5.85;2.37;;;;;;;-8.44;49.68;100856.23;1703605;83;22033;-74
2022/03/11 04:49:48;;;;;;;5.58;2.47;;;;;;;-8.43;49.99;100861.94;1697789;82;21172;-74
2022/03/11 04:52:15;;;;;;;4.85;2.40;;;;;;;-8.39;49.92;100859.26;1698271;82;21123;-75
2022/03/11 04:54:42;;;;;;;5.65;2.87;;;;;;;-8.37;49.94;100863.10;1696420;82;21654;-76
2022/03/11 04:57:09;;;;;;;5.92;2.42;;;;;;;-8.38;49.54;100870.31;1730399;81;20933;-74
2022/03/11 04:59:38;;;;;;;5.67;1.92;;;;;;;-8.36;49.81;100876.31;1733705;82;22448;-74
2022/03/11 05:02:05;;;;;;;7.80;2.83;;;;;;;-8.26;49.93;100878.03;1724099;81;21088;-76
2022/03/11 05:04:33;;;;;;;5.00;2.15;;;;;;;-8.20;50.03;100882.73;1713696;81;20893;-74
2022/03/11 05:07:01;;;;;;;3.50;1.95;;;;;;;-8.09;50.28;100882.94;1724601;81;20972;-75
2022/03/11 05:09:27;;;;;;;4.67;2.37;;;;;;;-8.01;49.79;100885.63;1723046;81;20908;-76
2022/03/11 05:11:55;;;;;;;6.62;2.62;;;;;;;-7.98;49.76;100889.31;1728362;81;21854;-75
2022/03/11 05:14:22;;;;;;;13.45;3.30;;;;;;;-7.97;49.43;100884.81;1727043;81;21099;-75
2022/03/11 05:16:51;;;;;;;8.60;3.05;;;;;;;-7.93;49.64;100884.80;1729446;81;21541;-74
2022/03/11 05:19:19;;;;;;;10.80;3.08;;;;;;;-7.87;49.44;100894.02;1731301;81;21036;-75
2022/03/11 05:21:46;;;;;;;6.17;2.62;;;;;;;-7.81;49.54;100886.66;1717873;81;21589;-76
2022/03/11 05:24:13;;;;;;;7.35;2.52;;;;;;;-7.77;49.10;100889.86;1677724;83;21060;-74
2022/03/11 05:26:41;;;;;;;6.97;2.80;;;;;;;-7.78;49.27;100890.38;1723684;81;21465;-76
2022/03/11 05:29:08;;;;;;;6.45;2.10;;;;;;;-7.76;49.44;100890.21;1682475;83;20981;-76
2022/03/11 05:31:35;;;;;;;4.42;2.50;;;;;;;-7.68;49.25;100888.88;1698239;83;21144;-75
2022/03/11 05:34:01;;;;;;;12.07;3.70;;;;;;;-7.66;49.17;100888.22;1690984;83;20949;-75
2022/03/11 05:36:29;;;;;;;15.55;3.47;;;;;;;-7.60;49.31;100886.20;1694159;83;21095;-75
2022/03/11 05:38:57;;;;;;;7.80;3.08;;;;;;;-7.54;49.19;100891.91;1691254;82;21068;-76
2022/03/11 05:41:26;;;;;;;6.92;2.70;;;;;;;-7.58;48.57;100890.05;1702720;83;21620;-74
2022/03/11 05:43:54;;;;;;;9.80;2.42;;;;;;;-7.61;48.71;100883.17;1711238;82;21101;-74
2022/03/11 05:46:22;;;;;;;9.13;2.65;;;;;;;-7.57;48.68;100889.89;1686705;83;21573;-75
2022/03/11 05:48:49;;;;;;;8.20;2.72;;;;;;;-7.50;48.61;100888.72;1690915;83;21045;-75
2022/03/11 05:51:17;;;;;;;10.78;2.83;;;;;;;-7.42;48.80;100889.21;1687918;83;20981;-77
2022/03/11 05:53:45;;;;;;;7.33;3.33;;;;;;;-7.36;48.63;100895.26;1684111;83;20985;-74
2022/03/11 05:56:12;;;;;;;5.25;2.47;;;;;;;-7.34;48.50;100887.90;1685876;83;20989;-76
2022/03/11 05:58:40;;;;;;;6.20;2.67;;;;;;;-7.28;48.53;100894.94;1686453;83;21605;-75
2022/03/11 06:01:07;;;;;;;8.35;2.85;;;;;;;-7.21;48.23;100896.76;1691408;83;21130;-75
2022/03/11 06:03:34;;;;;;;7.28;2.62;;;;;;;-7.24;48.25;100895.77;1691212;83;21099;-75
2022/03/11 06:06:01;;;;;;;7.80;2.67;;;;;;;-7.22;48.11;100906.31;1688546;83;21502;-77
2022/03/11 06:08:29;;;;;;;12.55;2.92;;;;;;;-7.31;47.76;100896.09;1679964;82;21055;-75
2022/03/11 06:10:56;;;;;;;9.98;3.90;;;;;;;-7.41;47.92;100894.92;1689120;83;21129;-76
2022/03/11 06:13:23;;;;;;;6.17;2.72;;;;;;;-7.40;48.37;100901.13;1691706;83;21395;-77
2022/03/11 06:15:50;;;;;;;6.42;3.00;;;;;;;-7.29;48.13;100894.58;1726940;81;20922;-76
2022/03/11 06:18:18;;;;;;;10.05;3.37;;;;;;;-7.28;48.25;100901.11;1729082;81;20929;-76
2022/03/11 06:20:45;;;;;;;8.68;3.15;;;;;;;-7.18;48.48;100890.21;1690300;82;20952;-77
2022/03/11 06:23:13;;;;;;;6.58;3.20;;;;;;;-7.04;48.16;100891.88;1729579;81;21463;-76
2022/03/11 06:25:42;;;;;;;5.12;3.12;;;;;;;-6.99;47.69;100886.84;1702200;82;21247;-75
2022/03/11 06:28:09;;;;;;;9.05;3.40;;;;;;;-7.04;47.84;100894.55;1723555;81;21014;-76
2022/03/11 06:30:36;;;;;;;11.18;3.90;;;;;;;-7.04;48.14;100891.88;1735356;81;21411;-76
2022/03/11 06:33:03;;;;;;;6.00;3.17;;;;;;;-6.96;48.11;100886.53;1725619;81;21045;-75
2022/03/11 06:35:30;;;;;;;8.15;2.72;;;;;;;-6.91;47.87;100890.87;1722960;82;21076;-76
2022/03/11 06:37:57;;;;;;;7.90;4.00;;;;;;;-6.91;48.00;100888.20;1725432;81;21489;-76
2022/03/11 06:40:24;;;;;;;10.58;3.72;;;;;;;-6.91;47.52;100884.17;1734490;81;21041;-75
2022/03/11 06:42:51;;;;;;;10.53;4.12;;;;;;;-6.84;48.04;100889.16;1722942;81;21402;-75
2022/03/11 06:45:19;;;;;;;6.90;3.50;;;;;;;-6.66;48.21;100885.94;1718190;81;20980;-75
2022/03/11 06:47:46;;;;;;;5.45;2.30;;;;;;;-6.49;47.64;100882.70;1720920;81;21056;-75
2022/03/11 06:50:14;;;;;;;11.12;3.98;;;;;;;-6.33;47.41;100884.99;1735619;81;21223;-76
2022/03/11 06:52:41;;;;;;;6.12;2.98;;;;;;;-6.21;47.03;100878.23;1723803;81;21577;-76
2022/03/11 06:55:08;;;;;;;8.53;3.27;;;;;;;-6.11;46.71;100882.86;1727286;81;20970;-76
2022/03/11 06:57:35;;;;;;;6.60;2.70;;;;;;;-6.04;46.19;100886.17;1683043;83;21042;-75
2022/03/11 07:00:05;;;;;;;8.33;2.72;;;;;;;-5.96;45.80;100881.25;1686095;81;21009;-75
2022/03/11 07:02:33;;;;;;;7.65;3.60;;;;;;;-5.99;44.63;100876.55;1684465;83;21179;-76
2022/03/11 07:04:59;;;;;;;7.08;2.77;;;;;;;-6.08;45.06;100880.34;1676243;83;21017;-76
2022/03/11 07:07:29;;;;;;;9.23;3.15;;;;;;;-6.08;45.14;100868.27;1676246;84;20913;-75
2022/03/11 07:09:55;;;;;;;4.20;2.20;;;;;;;-6.07;44.70;100871.80;1711433;83;20907;-76
2022/03/11 07:12:22;;;;;;;9.60;4.10;;;;;;;-6.02;44.95;100885.50;1742555;82;21036;-75
2022/03/11 07:14:51;;;;;;;7.70;2.70;;;;;;;-5.94;44.77;100866.65;1724362;81;20930;-76
2022/03/11 07:17:18;;;;;;;5.22;2.08;;;;;;;-5.81;44.67;100870.08;1726557;81;20944;-74
2022/03/11 07:19:45;;;;;;;8.85;3.72;;;;;;;-5.69;44.40;100861.10;1710715;81;21604;-75
2022/03/11 07:22:13;;;;;;;10.63;4.37;;;;;;;-5.55;44.11;100864.87;1734679;82;21137;-76
2022/03/11 07:24:41;;;;;;;6.92;3.00;;;;;;;-5.43;43.67;100872.00;1729103;81;20973;-75
2022/03/11 07:27:08;;;;;;;9.95;3.47;;;;;;;-5.32;43.94;100877.96;1739987;82;20979;-75
2022/03/11 07:29:35;;;;;;;9.03;2.92;;;;;;;-5.16;43.02;100871.59;1727372;81;20950;-75
2022/03/11 07:32:02;;;;;;;10.32;3.20;;;;;;;-5.07;42.83;100870.51;1731051;81;21060;-76
2022/03/11 07:34:31;;;;;;;6.80;3.50;;;;;;;-5.00;42.80;100866.58;1732084;81;21061;-75
2022/03/11 07:36:58;;;;;;;10.90;2.45;;;;;;;-4.84;42.88;100867.41;1733341;80;21636;-75
2022/03/11 07:39:25;;;;;;;26.37;3.83;;;;;;;-4.67;42.98;100874.28;1720502;81;21022;-75
2022/03/11 07:41:54;;;;;;;6.25;2.27;;;;;;;-4.52;41.10;100862.17;1718236;81;21160;-76
2022/03/11 07:44:21;;;;;;;13.05;3.08;;;;;;;-4.47;41.17;100868.86;1744673;80;21069;-76
2022/03/11 07:46:48;;;;;;;11.25;3.20;;;;;;;-4.44;40.94;100861.76;1722776;81;20960;-76
2022/03/11 07:49:15;;;;;;;6.10;1.85;;;;;;;-4.40;40.76;100861.19;1741181;82;20872;-75
2022/03/11 07:51:43;;;;;;;10.05;2.37;;;;;;;-4.37;39.93;100862.69;1731325;81;21323;-75
2022/03/11 07:54:10;;;;;;;5.78;2.58;;;;;;;-4.43;39.64;100866.11;1736401;81;20968;-77
2022/03/11 07:56:37;;;;;;;5.12;1.45;;;;;;;-4.44;39.77;100869.33;1738710;80;21169;-75
2022/03/11 07:59:05;;;;;;;3.02;1.27;;;;;;;-4.38;39.56;100879.02;1707581;81;21533;-76
2022/03/11 08:01:32;;;;;;;6.72;2.50;;;;;;;-4.34;39.15;100870.87;1711592;81;21463;-76
2022/03/11 08:04:00;;;;;;;6.62;1.67;;;;;;;-4.29;39.50;100871.16;1717044;80;21183;-76
2022/03/11 08:06:27;;;;;;;9.08;2.10;;;;;;;-4.21;38.25;100866.16;1712341;81;21001;-75
2022/03/11 08:08:55;;;;;;;10.68;2.20;;;;;;;-4.25;38.15;100858.16;1731061;80;21581;-76
2022/03/11 08:11:22;;;;;;;6.03;1.77;;;;;;;-4.21;38.03;100857.59;1728928;81;21016;-76
2022/03/11 08:13:49;;;;;;;14.65;2.95;;;;;;;-4.19;38.13;100860.93;1726457;81;20941;-77
2022/03/11 08:16:16;;;;;;;8.35;2.02;;;;;;;-4.10;38.15;100858.13;1716501;81;21978;-75
2022/03/11 08:18:45;;;;;;;3.45;2.08;;;;;;;-3.98;38.20;100870.58;1682226;83;21668;-77
2022/03/11 08:21:16;;;;;;;2.50;1.45;;;;;;;-3.83;38.36;100862.45;1718263;81;20926;-76
2022/03/11 08:23:46;;;;;;;7.62;1.57;;;;;;;-3.67;38.05;100869.47;1718919;81;20937;-75
2022/03/11 08:26:13;;;;;;;4.62;1.60;;;;;;;-3.59;37.44;100868.50;1723482;81;20981;-74
2022/03/11 08:28:40;;;;;;;3.83;2.00;;;;;;;-3.51;37.16;100860.28;1716815;81;21504;-78
2022/03/11 08:31:07;;;;;;;6.92;2.02;;;;;;;-3.45;36.88;100866.27;1711455;81;20969;-76
2022/03/11 08:33:37;;;;;;;5.05;2.20;;;;;;;-3.36;37.03;100862.08;1721366;81;20856;-77
2022/03/11 08:36:03;;;;;;;7.17;2.15;;;;;;;-3.24;36.91;100858.34;1728970;81;21190;-75
2022/03/11 08:38:30;;;;;;;7.08;2.55;;;;;;;-3.09;36.67;100859.59;1715678;81;21096;-75
2022/03/11 08:41:00;;;;;;;5.53;1.70;;;;;;;-2.96;36.54;100852.95;1731109;81;21163;-76
2022/03/11 08:43:26;;;;;;;4.92;1.90;;;;;;;-2.79;36.88;100851.28;1713549;82;20988;-75
2022/03/11 08:45:54;;;;;;;7.17;2.00;;;;;;;-2.60;36.92;100852.95;1712168;81;21508;-77
2022/03/11 08:48:21;;;;;;;7.58;1.95;;;;;;;-2.39;36.17;100844.44;1720138;81;21077;-76
2022/03/11 08:50:47;;;;;;;11.85;2.95;;;;;;;-2.21;35.98;100852.81;1726697;81;21400;-75
2022/03/11 08:53:15;;;;;;;9.93;2.20;;;;;;;-2.00;35.55;100843.42;1731655;82;21617;-75
2022/03/11 08:55:41;;;;;;;11.10;3.95;;;;;;;-1.87;34.66;100849.38;1718965;81;21367;-74
2022/03/11 08:58:08;;;;;;;7.40;1.92;;;;;;;-1.75;34.41;100850.45;1723232;81;21486;-76
2022/03/11 09:00:35;;;;;;;17.98;2.72;;;;;;;-1.63;34.05;100847.13;1719126;81;21004;-74
2022/03/11 09:03:02;;;;;;;9.38;1.87;;;;;;;-1.68;32.97;100853.16;1725827;81;20982;-75
2022/03/11 09:05:29;;;;;;;8.40;1.90;;;;;;;-1.73;33.21;100847.54;1732368;81;21198;-76
2022/03/11 09:07:58;;;;;;;5.97;2.10;;;;;;;-1.75;32.74;100861.26;1728458;81;21004;-75
2022/03/11 09:10:24;;;;;;;11.75;2.40;;;;;;;-1.82;32.75;100846.89;1733843;81;21573;-75
2022/03/11 09:12:51;;;;;;;6.55;1.82;;;;;;;-1.72;33.06;100851.89;1720812;81;21032;-77
2022/03/11 09:15:18;;;;;;;14.95;2.67;;;;;;;-1.54;33.45;100849.12;1680434;83;21541;-76
2022/03/11 09:17:46;;;;;;;12.15;2.12;;;;;;;-1.35;33.47;100849.64;1712199;81;21171;-76
2022/03/11 09:20:13;;;;;;;8.78;2.10;;;;;;;-1.25;33.08;100854.66;1721890;81;21514;-76
2022/03/11 09:22:42;;;;;;;11.65;2.35;;;;;;;-1.18;33.36;100866.83;1734295;81;21454;-76
2022/03/11 09:25:10;;;;;;;5.53;2.10;;;;;;;-1.05;33.17;100861.92;1699197;82;20968;-76
2022/03/11 09:27:39;;;;;;;7.85;1.75;;;;;;;-1.06;32.53;100860.27;1695694;82;20945;-76
2022/03/11 09:30:08;;;;;;;8.40;1.95;;;;;;;-1.04;32.66;100857.36;1712267;83;22322;-78
2022/03/11 09:32:34;;;;;;;9.30;1.95;;;;;;;-1.09;31.31;100866.62;1694102;82;21640;-77
2022/03/11 09:35:01;;;;;;;4.12;2.42;;;;;;;-1.19;31.67;100872.42;1695336;82;21072;-76
2022/03/11 09:37:28;;;;;;;3.67;1.92;;;;;;;-1.18;31.96;100872.75;1702161;82;20997;-76
2022/03/11 09:39:57;;;;;;;12.55;2.22;;;;;;;-1.08;31.60;100858.80;1699805;82;20965;-77
2022/03/11 09:42:23;;;;;;;7.03;2.15;;;;;;;-1.04;31.89;100866.28;1710676;82;21154;-77
2022/03/11 09:44:53;;;;;;;13.85;2.72;;;;;;;-0.92;31.95;100865.67;1727950;81;21416;-78
2022/03/11 09:47:20;;;;;;;6.03;2.15;;;;;;;-0.75;31.38;100863.36;1721567;81;21434;-76
2022/03/11 09:49:49;;;;;;;3.85;2.20;;;;;;;-0.74;30.99;100866.36;1717344;81;20985;-75
2022/03/11 09:52:16;;;;;;;15.35;2.58;;;;;;;-0.73;31.17;100855.83;1737819;80;21043;-76
2022/03/11 09:54:48;;;;;;;9.43;2.52;;;;;;;-0.59;31.78;100862.05;1725358;81;22806;-77
2022/03/11 09:57:22;;;;;;;10.72;2.15;;;;;;;-0.50;31.40;100858.09;1739460;81;20988;-76
2022/03/11 09:59:50;;;;;;;9.88;2.40;;;;;;;-0.40;31.25;100861.69;1720413;81;20981;-79
2022/03/11 10:02:17;;;;;;;17.32;2.72;;;;;;;-0.34;30.99;100861.89;1734772;81;20933;-77
2022/03/11 10:04:57;;;;;;;9.85;2.45;;;;;;;-0.32;31.01;100842.16;1733229;81;21692;-76
2022/03/11 10:07:30;;;;;;;4.33;1.90;;;;;;;-0.26;31.05;100854.33;1725890;81;21145;-77
2022/03/11 10:09:59;;;;;;;11.12;2.33;;;;;;;-0.22;30.86;100852.02;1714892;81;21458;-74
2022/03/11 10:12:29;;;;;;;6.65;2.45;;;;;;;-0.20;30.59;100849.09;1720186;81;21565;-76
2022/03/11 10:15:01;;;;;;;9.05;2.55;;;;;;;-0.17;30.56;100854.11;1729107;81;21465;-79
2022/03/11 10:17:38;;;;;;;5.75;2.47;;;;;;;-0.21;30.39;100855.05;1720429;81;20950;-78
2022/03/11 10:20:15;;;;;;;7.00;2.30;;;;;;;-0.23;30.35;100846.82;1731645;81;21319;-77
2022/03/11 10:22:49;;;;;;;9.40;2.55;;;;;;;-0.26;30.54;100843.48;1735471;81;20849;-74
2022/03/11 10:25:25;;;;;;;7.50;2.30;;;;;;;-0.27;30.72;100839.12;1710783;81;21177;-77
2022/03/11 10:28:12;;;;;;;4.67;2.55;;;;;;;-0.26;30.84;100839.42;1669060;84;21431;-77
2022/03/11 10:30:42;;;;;;;5.22;2.50;;;;;;;-0.26;30.40;100839.42;1724545;81;20960;-78
2022/03/11 10:33:15;;;;;;;14.10;3.45;;;;;;;-0.19;30.82;100842.13;1724006;81;21220;-78
2022/03/11 10:35:47;;;;;;;;;;;;;;;-0.09;30.41;100843.02;1717757;81;21391;-78
2022/03/11 10:38:15;;;;;;;6.10;2.30;;;;;;;0.03;30.62;100844.52;1723193;81;20163;-77
2022/03/11 10:40:55;;;;;;;5.85;2.50;;;;;;;0.17;30.56;100847.16;1722789;81;21013;-78
2022/03/11 10:43:28;;;;;;;5.17;2.02;;;;;;;0.28;30.42;100849.67;1723729;81;20932;-76
2022/03/11 10:46:06;;;;;;;9.18;1.90;;;;;;;0.18;30.06;100844.22;1720184;81;20969;-77
2022/03/11 10:48:48;;;;;;;6.25;1.92;;;;;;;0.21;30.11;100847.84;1705228;81;21055;-79
2022/03/11 10:51:30;;;;;;;8.03;2.25;;;;;;;0.27;30.28;100833.11;1658331;83;21014;-77
2022/03/11 10:54:02;;;;;;;3.83;1.50;;;;;;;0.37;29.92;100838.89;1732765;81;21003;-76
2022/03/11 10:56:40;;;;;;;3.30;1.90;;;;;;;0.44;29.74;100837.48;1731763;81;20945;-76
2022/03/11 10:59:16;;;;;;;6.08;1.72;;;;;;;0.48;29.80;100832.75;1732010;81;21805;-76
2022/03/11 11:01:44;;;;;;;5.00;1.40;;;;;;;0.58;29.84;100838.22;1725017;81;21406;-76
2022/03/11 11:04:13;;;;;;;7.80;1.50;;;;;;;0.62;29.38;100829.93;1713650;81;20992;-77
2022/03/11 11:06:40;;;;;;;6.97;1.52;;;;;;;0.63;29.54;100828.05;1731119;81;21421;-77
2022/03/11 11:09:11;;;;;;;7.67;1.60;;;;;;;0.63;29.47;100830.77;1730777;80;21150;-75
2022/03/11 11:11:42;;;;;;;17.25;2.35;;;;;;;0.65;29.47;100829.48;1694683;82;21752;-76
2022/03/11 11:14:08;;;;;;;7.37;1.92;;;;;;;0.80;29.60;100836.47;1691888;82;21490;-76
2022/03/11 11:16:43;;;;;;;3.65;1.52;;;;;;;0.93;29.64;100825.49;1674464;83;21018;-77
2022/03/11 11:19:12;;;;;;;3.12;1.62;;;;;;;1.03;29.25;100829.05;1686154;82;21008;-78
2022/03/11 11:21:43;;;;;;;8.38;1.92;;;;;;;1.02;28.83;100812.47;1688962;83;21096;-78
2022/03/11 11:24:22;;;;;;;3.77;1.32;;;;;;;0.97;29.16;100828.05;1702957;83;21803;-78
2022/03/11 11:26:53;;;;;;;6.22;2.15;;;;;;;1.04;28.94;100838.03;1732280;81;20997;-77
2022/03/11 11:29:26;;;;;;;6.50;1.75;;;;;;;1.09;28.69;100824.62;1727371;81;21038;-77